Time;durP1;ratioP1;P1;durP2;ratioP2;P2;SDS_P1;SDS_P2;PMS_P1;PMS_P2;Temp;Humidity;BMP_temperature;BMP_pressure;BME280_temperature;BME280_humidity;BME280_pressure;Samples;Min_cycle;Max_cycle;Signal;HPM_P1;HPM_P2
2024/03/24 00:01:07;;;;;;;16.85;1.80;;;23.80;58.80;;;;;;5085209;28;20367;-49
2024/03/24 00:03:35;;;;;;;18.33;3.47;;;23.70;59.30;;;;;;5087921;28;20068;-55
2024/03/24 00:06:02;;;;;;;14.13;3.92;;;23.70;59.50;;;;;;5084264;28;20080;-53
2024/03/24 00:08:30;;;;;;;15.80;4.93;;;23.60;60.00;;;;;;5092029;28;20088;-54
2024/03/24 00:10:59;;;;;;;5.10;1.63;;;23.50;61.20;;;;;;5090126;28;20081;-51
2024/03/24 00:13:26;;;;;;;7.95;1.50;;;23.20;62.30;;;;;;5085722;28;20425;-60
2024/03/24 00:15:53;;;;;;;9.10;1.83;;;23.30;60.80;;;;;;5083966;28;20566;-54
2024/03/24 00:18:19;;;;;;;13.75;2.20;;;23.30;62.20;;;;;;5086751;28;20483;-54
2024/03/24 00:20:46;;;;;;;9.40;1.67;;;23.40;62.50;;;;;;5081980;28;20069;-48
2024/03/24 00:23:12;;;;;;;23.33;1.92;;;23.40;61.30;;;;;;5087505;28;20065;-48
2024/03/24 00:25:39;;;;;;;12.70;1.50;;;23.50;58.30;;;;;;5083072;28;20076;-51
2024/03/24 00:28:05;;;;;;;18.27;1.60;;;23.50;56.30;;;;;;5097957;28;20068;-53
2024/03/24 00:30:33;;;;;;;11.77;1.35;;;23.50;55.40;;;;;;5077982;28;20080;-53
2024/03/24 00:32:59;;;;;;;13.77;2.10;;;23.50;55.00;;;;;;5087063;28;20079;-51
2024/03/24 00:35:26;;;;;;;11.05;1.50;;;23.50;55.10;;;;;;5076724;28;20097;-49
2024/03/24 00:37:52;;;;;;;7.50;1.63;;;23.50;55.30;;;;;;5092601;28;20156;-47
2024/03/24 00:40:19;;;;;;;7.43;0.70;;;23.50;55.50;;;;;;5082059;28;20073;-49
2024/03/24 00:42:45;;;;;;;8.38;1.15;;;23.30;56.00;;;;;;5095560;28;20121;-50
2024/03/24 00:45:12;;;;;;;12.35;2.50;;;23.20;56.40;;;;;;5093007;28;20073;-52
2024/03/24 00:47:38;;;;;;;19.88;1.63;;;23.30;56.40;;;;;;5091394;28;20076;-54
2024/03/24 00:50:05;;;;;;;24.25;15.05;;;23.30;56.30;;;;;;5092653;28;20072;-49
2024/03/24 00:52:32;;;;;;;29.35;2.92;;;23.30;56.30;;;;;;5093950;28;20089;-49
2024/03/24 00:55:01;;;;;;;31.15;3.65;;;23.30;56.10;;;;;;5093285;28;20135;-48
2024/03/24 00:57:27;;;;;;;52.83;4.78;;;23.20;56.20;;;;;;5085927;28;20079;-52
2024/03/24 00:59:54;;;;;;;49.50;4.72;;;23.20;56.00;;;;;;5088773;28;20068;-49
2024/03/24 01:02:22;;;;;;;52.05;19.48;;;23.20;56.00;;;;;;5091222;28;20096;-48
2024/03/24 01:04:48;;;;;;;33.80;3.42;;;23.00;56.30;;;;;;5093611;28;20129;-47
2024/03/24 01:07:15;;;;;;;22.42;2.42;;;22.90;56.80;;;;;;5093464;28;20069;-50
2024/03/24 01:09:41;;;;;;;18.92;1.95;;;22.80;57.20;;;;;;5089309;28;20224;-49
2024/03/24 01:12:08;;;;;;;25.80;2.00;;;22.80;57.50;;;;;;5091684;28;20102;-48
2024/03/24 01:14:35;;;;;;;34.50;3.25;;;22.70;57.30;;;;;;5084985;28;20115;-48
2024/03/24 01:17:02;;;;;;;28.65;2.83;;;22.70;57.40;;;;;;5089862;28;20468;-48
2024/03/24 01:19:29;;;;;;;30.77;2.47;;;22.70;57.70;;;;;;5073052;28;20464;-52
2024/03/24 01:21:55;;;;;;;25.20;2.97;;;22.70;57.60;;;;;;5092670;28;20158;-49
2024/03/24 01:24:22;;;;;;;46.55;4.20;;;22.50;57.50;;;;;;5090500;28;20065;-48
2024/03/24 01:26:48;;;;;;;40.17;2.95;;;22.30;58.60;;;;;;5089348;28;20148;-48
2024/03/24 01:29:15;;;;;;;95.95;6.97;;;21.80;61.80;;;;;;5079912;28;20069;-49
2024/03/24 01:31:41;;;;;;;103.95;7.60;;;21.30;63.80;;;;;;5087012;28;20068;-58
2024/03/24 01:34:08;;;;;;;167.40;11.45;;;20.90;65.30;;;;;;5092581;28;20069;-50
2024/03/24 01:36:34;;;;;;;116.82;11.85;;;20.70;65.10;;;;;;5091944;28;20061;-52
2024/03/24 01:39:02;;;;;;;148.10;11.30;;;20.50;64.00;;;;;;5089964;28;20087;-47
2024/03/24 01:41:29;;;;;;;113.38;8.07;;;20.40;63.50;;;;;;5085514;28;20422;-49
2024/03/24 01:43:59;;;;;;;91.90;6.78;;;20.30;63.20;;;;;;5096071;28;20072;-52
2024/03/24 01:46:25;;;;;;;62.95;5.07;;;20.30;63.40;;;;;;5093980;28;20121;-49
2024/03/24 01:48:52;;;;;;;71.47;4.95;;;20.20;63.60;;;;;;5089681;28;20095;-53
2024/03/24 01:51:23;;;;;;;57.88;4.05;;;20.20;63.80;;;;;;5081259;28;20069;-48
2024/03/24 01:53:50;;;;;;;84.63;5.68;;;20.00;63.50;;;;;;5091939;28;20068;-53
2024/03/24 01:56:17;;;;;;;82.72;4.80;;;19.80;63.40;;;;;;5092796;28;20538;-48
2024/03/24 01:58:44;;;;;;;44.92;3.45;;;19.70;63.80;;;;;;5091517;28;20072;-54
2024/03/24 02:01:11;;;;;;;32.60;3.10;;;19.60;63.80;;;;;;5081854;28;20092;-51
2024/03/24 02:03:38;;;;;;;28.90;2.42;;;19.50;64.10;;;;;;5076021;28;20134;-52
2024/03/24 02:06:05;;;;;;;36.78;2.50;;;19.40;64.20;;;;;;5073726;28;20069;-49
2024/03/24 02:08:32;;;;;;;39.75;3.72;;;19.30;64.50;;;;;;5071683;28;20080;-51
2024/03/24 02:10:59;;;;;;;42.33;3.28;;;19.20;64.90;;;;;;5080501;28;20107;-50
2024/03/24 02:13:26;;;;;;;49.60;3.90;;;19.10;65.50;;;;;;5083418;28;20518;-50
2024/03/24 02:15:54;;;;;;;39.92;3.13;;;19.00;66.10;;;;;;5094033;28;20195;-52
2024/03/24 02:18:22;;;;;;;41.42;2.75;;;18.90;66.70;;;;;;5091797;28;20083;-50
2024/03/24 02:20:48;;;;;;;19.40;1.98;;;18.70;67.30;;;;;;5093624;28;20141;-54
2024/03/24 02:23:15;;;;;;;9.80;1.65;;;18.70;67.90;;;;;;5089695;28;20065;-49
2024/03/24 02:25:41;;;;;;;2.75;1.10;;;18.60;68.30;;;;;;5086749;28;20134;-51
2024/03/24 02:28:11;;;;;;;14.73;1.95;;;18.50;68.60;;;;;;5073237;28;20507;-53
2024/03/24 02:30:37;;;;;;;23.70;2.47;;;18.50;68.90;;;;;;5073343;28;20104;-51
2024/03/24 02:33:04;;;;;;;23.15;2.17;;;18.50;67.80;;;;;;5070670;28;20068;-50
2024/03/24 02:35:31;;;;;;;30.15;4.18;;;18.60;67.70;;;;;;5084096;28;20181;-53
2024/03/24 02:37:57;;;;;;;37.22;3.22;;;18.60;67.40;;;;;;5093601;28;20068;-53
2024/03/24 02:40:24;;;;;;;41.03;2.85;;;18.60;67.80;;;;;;5089927;28;20983;-54
2024/03/24 02:42:50;;;;;;;28.30;2.65;;;18.40;66.70;;;;;;5093547;28;20503;-49
2024/03/24 02:45:17;;;;;;;38.53;3.63;;;18.30;66.40;;;;;;5093340;28;20065;-54
2024/03/24 02:47:43;;;;;;;47.45;3.25;;;18.20;66.30;;;;;;5092944;28;20064;-54
2024/03/24 02:50:10;;;;;;;49.00;3.90;;;18.20;66.30;;;;;;5088219;28;20083;-50
2024/03/24 02:52:36;;;;;;;23.70;3.30;;;18.20;65.70;;;;;;5087989;28;20553;-48
2024/03/24 02:55:06;;;;;;;34.38;3.05;;;18.10;65.90;;;;;;5090625;28;20100;-48
2024/03/24 02:57:33;;;;;;;37.35;4.07;;;18.10;65.80;;;;;;5080553;28;20511;-50
2024/03/24 02:59:59;;;;;;;91.18;6.82;;;18.30;64.50;;;;;;5071648;28;20119;-50
2024/03/24 03:02:25;;;;;;;86.07;7.57;;;18.60;61.20;;;;;;5072820;28;20068;-50
2024/03/24 03:04:52;;;;;;;68.45;6.13;;;18.80;59.50;;;;;;5072608;28;20403;-51
2024/03/24 03:07:18;;;;;;;121.40;9.85;;;18.90;59.10;;;;;;5072906;28;20073;-49
2024/03/24 03:09:45;;;;;;;118.97;10.38;;;18.70;59.50;;;;;;5087755;28;20118;-52
2024/03/24 03:12:12;;;;;;;135.10;10.48;;;18.40;60.60;;;;;;5075662;28;20077;-56
2024/03/24 03:14:38;;;;;;;242.77;18.88;;;18.10;61.40;;;;;;5071030;28;20162;-49
2024/03/24 03:17:05;;;;;;;339.02;22.17;;;17.90;61.40;;;;;;5081362;28;20103;-53
2024/03/24 03:19:31;;;;;;;208.13;15.45;;;17.90;61.40;;;;;;5089532;28;20136;-50
2024/03/24 03:21:58;;;;;;;177.90;13.38;;;17.70;61.80;;;;;;5091158;28;20069;-55
2024/03/24 03:24:24;;;;;;;209.98;14.75;;;17.60;61.40;;;;;;5091654;28;20121;-53
2024/03/24 03:26:50;;;;;;;233.38;17.38;;;17.60;60.70;;;;;;5089244;28;20068;-56
2024/03/24 03:29:17;;;;;;;282.52;16.98;;;17.60;60.30;;;;;;5089387;28;20159;-59
2024/03/24 03:31:46;;;;;;;117.15;9.25;;;17.40;59.90;;;;;;5089250;28;20151;-55
2024/03/24 03:34:13;;;;;;;101.50;7.75;;;17.40;59.40;;;;;;5089877;28;20077;-53
2024/03/24 03:36:39;;;;;;;99.88;6.78;;;17.40;58.30;;;;;;5090500;28;20069;-52
2024/03/24 03:39:06;;;;;;;59.47;5.57;;;17.40;58.20;;;;;;5092600;28;20059;-53
2024/03/24 03:41:33;;;;;;;51.25;5.80;;;17.20;57.60;;;;;;5092230;28;20061;-53
2024/03/24 03:43:59;;;;;;;42.88;4.93;;;17.20;57.90;;;;;;5089080;28;20223;-48
2024/03/24 03:46:29;;;;;;;45.95;5.93;;;17.00;58.20;;;;;;5087420;28;20073;-56
2024/03/24 03:48:55;;;;;;;53.00;5.03;;;16.90;58.30;;;;;;5086878;28;20468;-54
2024/03/24 03:51:36;;;;;;;50.20;6.10;;;16.80;58.10;;;;;;5087793;28;20073;-51
2024/03/24 03:54:04;;;;;;;89.78;7.43;;;16.70;56.60;;;;;;5082429;28;20068;-60
2024/03/24 03:56:31;;;;;;;58.58;7.20;;;16.70;55.60;;;;;;5089617;28;20083;-52
2024/03/24 03:58:57;;;;;;;57.70;5.35;;;16.70;54.90;;;;;;5088248;28;20076;-55
2024/03/24 04:01:24;;;;;;;44.30;4.90;;;16.60;54.30;;;;;;5086256;28;20077;-55
2024/03/24 04:03:50;;;;;;;33.35;3.85;;;16.60;53.80;;;;;;5088121;28;20546;-52
2024/03/24 04:06:17;;;;;;;27.38;3.20;;;16.50;52.70;;;;;;5087304;28;20077;-55
2024/03/24 04:08:43;;;;;;;29.08;3.47;;;16.50;52.50;;;;;;5086233;28;20065;-48
2024/03/24 04:11:09;;;;;;;29.40;3.30;;;16.40;52.70;;;;;;5088522;28;20163;-54
2024/03/24 04:13:36;;;;;;;36.83;3.90;;;16.40;52.90;;;;;;5087628;28;20159;-54
2024/03/24 04:16:06;;;;;;;51.70;4.05;;;16.30;53.60;;;;;;5084687;28;20593;-55
2024/03/24 04:18:33;;;;;;;60.67;5.70;;;16.20;53.90;;;;;;5087097;28;20069;-54
2024/03/24 04:21:06;;;;;;;70.50;5.50;;;16.10;54.00;;;;;;5081180;28;20077;-51
2024/03/24 04:23:32;;;;;;;91.13;7.22;;;16.00;53.10;;;;;;5084312;28;20163;-49
2024/03/24 04:25:58;;;;;;;56.70;5.35;;;16.10;52.80;;;;;;5101515;28;20177;-49
2024/03/24 04:28:25;;;;;;;40.17;5.18;;;16.10;52.30;;;;;;5084607;28;20073;-50
2024/03/24 04:30:51;;;;;;;65.38;6.15;;;16.00;53.10;;;;;;5087679;28;20087;-56
2024/03/24 04:33:18;;;;;;;48.67;4.65;;;16.00;54.00;;;;;;5087141;28;20072;-50
2024/03/24 04:35:44;;;;;;;35.60;4.35;;;15.90;55.10;;;;;;5087213;28;20092;-53
2024/03/24 04:38:11;;;;;;;37.95;4.25;;;15.90;55.00;;;;;;5088096;28;20102;-51
2024/03/24 04:40:38;;;;;;;36.78;4.20;;;16.00;54.80;;;;;;5086937;28;20061;-58
2024/03/24 04:43:07;;;;;;;27.80;3.92;;;15.90;55.10;;;;;;5083892;28;20426;-53
2024/03/24 04:45:34;;;;;;;30.80;4.70;;;15.90;55.20;;;;;;5086148;28;20133;-50
2024/03/24 04:48:00;;;;;;;16.48;3.20;;;15.90;55.10;;;;;;5082208;28;20075;-57
2024/03/24 04:50:28;;;;;;;28.52;4.28;;;15.90;53.90;;;;;;5089109;28;20069;-52
2024/03/24 04:52:55;;;;;;;22.48;3.50;;;16.00;54.10;;;;;;5080812;28;21273;-51
2024/03/24 04:55:21;;;;;;;26.27;3.67;;;16.00;54.70;;;;;;5083210;28;20101;-51
2024/03/24 04:57:48;;;;;;;19.55;3.45;;;15.90;55.10;;;;;;5088267;28;20072;-55
2024/03/24 05:00:15;;;;;;;25.13;3.05;;;15.80;55.40;;;;;;5082524;28;20065;-49
2024/03/24 05:02:41;;;;;;;15.30;3.30;;;15.80;56.10;;;;;;5087413;28;20087;-51
2024/03/24 05:05:10;;;;;;;19.85;3.45;;;15.80;56.10;;;;;;5083816;28;20065;-51
2024/03/24 05:07:36;;;;;;;13.88;3.30;;;15.70;56.90;;;;;;5089229;28;20076;-57
2024/03/24 05:10:03;;;;;;;11.63;3.50;;;15.70;58.30;;;;;;5085954;28;20159;-48
2024/03/24 05:12:29;;;;;;;14.55;2.92;;;15.60;59.30;;;;;;5084279;28;20096;-48
2024/03/24 05:14:56;;;;;;;10.25;3.08;;;15.50;60.80;;;;;;5089601;28;20100;-66
2024/03/24 05:17:22;;;;;;;13.65;2.88;;;15.50;61.50;;;;;;5081637;28;20079;-53
2024/03/24 05:19:49;;;;;;;17.98;2.72;;;15.40;61.80;;;;;;5076157;28;20069;-51
2024/03/24 05:22:15;;;;;;;20.65;2.97;;;15.40;62.60;;;;;;5091655;28;20069;-54
2024/03/24 05:24:42;;;;;;;22.05;3.15;;;15.40;63.30;;;;;;5084747;28;20156;-60
2024/03/24 05:27:10;;;;;;;20.92;3.25;;;15.40;63.60;;;;;;5091354;28;20418;-53
2024/03/24 05:29:36;;;;;;;16.55;3.10;;;15.40;64.10;;;;;;5085041;28;20487;-52
2024/03/24 05:32:03;;;;;;;26.00;3.92;;;15.30;64.20;;;;;;5088362;28;20069;-52
2024/03/24 05:34:29;;;;;;;18.05;3.00;;;15.30;63.80;;;;;;5088586;28;20116;-53
2024/03/24 05:36:56;;;;;;;19.77;3.08;;;15.30;63.80;;;;;;5089764;28;20096;-58
2024/03/24 05:39:22;;;;;;;18.13;2.90;;;15.30;63.50;;;;;;5092439;28;20099;-54
2024/03/24 05:41:50;;;;;;;22.45;3.30;;;15.40;63.20;;;;;;5088641;28;20071;-51
2024/03/24 05:44:17;;;;;;;18.02;2.88;;;15.40;62.90;;;;;;5089842;28;20089;-49
2024/03/24 05:46:44;;;;;;;19.10;2.75;;;15.40;62.90;;;;;;5086943;28;20578;-59
2024/03/24 05:49:10;;;;;;;25.90;3.53;;;15.40;63.40;;;;;;5087927;28;20570;-51
2024/03/24 05:51:37;;;;;;;32.40;4.05;;;15.40;63.80;;;;;;5089356;28;20103;-50
2024/03/24 05:54:05;;;;;;;22.63;3.03;;;15.30;64.30;;;;;;5089445;28;20069;-51
2024/03/24 05:56:32;;;;;;;26.00;3.75;;;15.30;64.50;;;;;;5090117;28;20080;-55
2024/03/24 05:58:59;;;;;;;26.38;3.40;;;15.30;64.60;;;;;;5088734;28;20168;-54
2024/03/24 06:01:25;;;;;;;28.13;3.72;;;15.30;64.40;;;;;;5089212;28;20160;-54
2024/03/24 06:03:52;;;;;;;26.40;3.00;;;15.40;63.70;;;;;;5090378;28;20491;-53
2024/03/24 06:06:19;;;;;;;21.73;4.05;;;15.40;63.50;;;;;;5088922;28;20076;-60
2024/03/24 06:08:45;;;;;;;22.33;3.40;;;15.40;64.00;;;;;;5089499;28;20073;-56
2024/03/24 06:11:12;;;;;;;22.52;3.58;;;15.40;64.40;;;;;;5089441;28;20069;-54
2024/03/24 06:13:38;;;;;;;16.08;2.97;;;15.30;65.50;;;;;;5086933;28;20080;-56
2024/03/24 06:16:05;;;;;;;12.10;2.60;;;15.30;65.50;;;;;;5088417;28;20581;-51
2024/03/24 06:18:33;;;;;;;13.20;2.28;;;15.30;64.40;;;;;;5086958;28;20069;-55
2024/03/24 06:21:00;;;;;;;12.57;2.72;;;15.20;64.20;;;;;;5087627;28;20422;-54
2024/03/24 06:23:26;;;;;;;22.65;3.42;;;15.20;64.30;;;;;;5089026;28;20104;-51
2024/03/24 06:25:53;;;;;;;17.83;2.72;;;15.30;64.60;;;;;;5089538;28;20155;-52
2024/03/24 06:28:20;;;;;;;18.25;4.38;;;15.20;64.70;;;;;;5087750;28;20076;-54
2024/03/24 06:30:48;;;;;;;23.33;3.08;;;15.20;65.30;;;;;;5088989;28;20096;-53
2024/03/24 06:33:14;;;;;;;42.70;19.52;;;15.20;66.00;;;;;;5089128;28;20080;-55
2024/03/24 06:35:41;;;;;;;16.13;2.80;;;15.20;66.30;;;;;;5088080;28;20438;-51
2024/03/24 06:38:08;;;;;;;10.02;2.45;;;15.20;66.20;;;;;;5085515;28;20134;-51
2024/03/24 06:40:34;;;;;;;14.32;2.45;;;15.20;66.50;;;;;;5086613;28;20064;-49
2024/03/24 06:43:02;;;;;;;8.38;2.03;;;15.20;66.60;;;;;;5088823;28;20076;-51
2024/03/24 06:45:34;;;;;;;12.98;2.42;;;15.20;66.40;;;;;;5086491;28;20071;-55
2024/03/24 06:48:02;;;;;;;8.02;1.85;;;15.20;66.10;;;;;;5088209;28;20497;-54
2024/03/24 06:50:29;;;;;;;9.02;2.30;;;15.20;66.00;;;;;;5087417;28;20098;-58
2024/03/24 06:52:56;;;;;;;8.13;2.38;;;15.20;66.40;;;;;;5090062;28;20069;-56
2024/03/24 06:55:26;;;;;;;9.75;2.70;;;15.20;66.40;;;;;;5087943;28;20484;-57
2024/03/24 06:57:53;;;;;;;14.20;3.10;;;15.10;67.10;;;;;;5088517;28;20411;-49
2024/03/24 07:00:20;;;;;;;10.00;2.25;;;15.10;67.70;;;;;;5089594;28;20129;-56
2024/03/24 07:02:48;;;;;;;9.57;2.10;;;15.00;68.40;;;;;;5088248;28;20102;-50
2024/03/24 07:05:15;;;;;;;10.15;2.40;;;15.00;68.80;;;;;;5087391;28;20082;-53
2024/03/24 07:07:42;;;;;;;13.63;2.25;;;15.00;69.10;;;;;;5087090;28;20069;-53
2024/03/24 07:10:10;;;;;;;13.00;2.33;;;15.00;69.30;;;;;;5090309;28;20469;-54
2024/03/24 07:12:36;;;;;;;17.83;3.10;;;15.00;69.40;;;;;;5088846;28;20085;-53
2024/03/24 07:15:04;;;;;;;16.00;3.13;;;14.90;69.50;;;;;;5086416;28;20539;-58
2024/03/24 07:17:30;;;;;;;15.75;2.95;;;14.90;69.50;;;;;;5085363;28;20151;-54
2024/03/24 07:19:56;;;;;;;19.80;3.58;;;15.00;69.40;;;;;;5088582;28;20076;-55
2024/03/24 07:22:23;;;;;;;15.50;2.85;;;15.00;69.10;;;;;;5086369;28;20073;-55
2024/03/24 07:24:50;;;;;;;13.98;2.97;;;15.00;69.00;;;;;;5088140;28;20092;-55
2024/03/24 07:27:17;;;;;;;13.25;3.05;;;15.00;68.90;;;;;;5090007;28;20166;-54
2024/03/24 07:29:44;;;;;;;13.40;2.15;;;15.00;69.00;;;;;;5086685;28;20074;-49
2024/03/24 07:32:10;;;;;;;29.20;2.80;;;15.10;68.40;;;;;;5088307;28;20094;-51
2024/03/24 07:34:39;;;;;;;18.92;2.53;;;15.10;68.10;;;;;;5087346;28;20538;-55
2024/03/24 07:37:05;;;;;;;25.25;3.40;;;15.10;68.10;;;;;;5085887;28;20468;-53
2024/03/24 07:39:31;;;;;;;41.95;4.75;;;15.10;68.00;;;;;;5086879;28;20069;-53
2024/03/24 07:41:58;;;;;;;31.80;2.95;;;15.10;67.20;;;;;;5087642;28;20594;-55
2024/03/24 07:44:24;;;;;;;34.75;2.80;;;15.20;66.50;;;;;;5088935;28;20065;-56
2024/03/24 07:46:51;;;;;;;31.13;2.53;;;15.40;66.00;;;;;;5087618;28;20072;-56
2024/03/24 07:49:17;;;;;;;28.75;2.85;;;15.40;65.70;;;;;;5087195;28;20077;-54
2024/03/24 07:51:44;;;;;;;16.15;2.15;;;15.40;65.80;;;;;;5086838;28;20511;-58
2024/03/24 07:54:10;;;;;;;29.05;2.35;;;15.40;66.00;;;;;;5088390;28;20434;-49
2024/03/24 07:56:37;;;;;;;36.97;2.50;;;15.40;65.70;;;;;;5088581;28;20076;-53
2024/03/24 07:59:03;;;;;;;18.45;1.88;;;15.50;65.50;;;;;;5087464;28;20425;-54
2024/03/24 08:01:29;;;;;;;16.05;1.60;;;15.50;65.50;;;;;;5085729;28;20114;-55
2024/03/24 08:03:56;;;;;;;12.57;1.70;;;15.50;65.80;;;;;;5086343;28;20075;-59
2024/03/24 08:06:22;;;;;;;13.02;7.13;;;15.40;65.90;;;;;;5085720;28;20077;-59
2024/03/24 08:08:49;;;;;;;16.40;1.92;;;15.50;65.80;;;;;;5088760;28;20105;-56
2024/03/24 08:11:15;;;;;;;16.10;1.80;;;15.60;65.80;;;;;;5082972;28;20440;-57
2024/03/24 08:13:41;;;;;;;13.52;1.80;;;15.60;65.90;;;;;;5081303;28;20499;-59
2024/03/24 08:16:08;;;;;;;9.25;1.58;;;15.60;66.20;;;;;;5086725;28;20104;-60
2024/03/24 08:18:36;;;;;;;9.50;1.63;;;15.60;66.40;;;;;;5088619;28;20527;-58
2024/03/24 08:21:03;;;;;;;12.05;1.67;;;15.50;67.00;;;;;;5085254;28;20130;-60
2024/03/24 08:23:29;;;;;;;8.07;2.03;;;15.40;67.50;;;;;;5086220;28;20073;-59
2024/03/24 08:25:56;;;;;;;7.80;2.05;;;15.30;67.90;;;;;;5090564;28;20077;-60
2024/03/24 08:28:22;;;;;;;6.85;2.67;;;15.30;68.40;;;;;;5087283;28;20153;-52
2024/03/24 08:30:49;;;;;;;7.35;1.83;;;15.30;68.70;;;;;;5084971;28;20075;-57
2024/03/24 08:33:15;;;;;;;18.20;2.10;;;15.40;68.30;;;;;;5091969;28;20462;-55
2024/03/24 08:35:42;;;;;;;13.30;1.67;;;15.50;68.40;;;;;;5087722;28;20100;-55
2024/03/24 08:38:08;;;;;;;7.20;1.30;;;15.50;67.60;;;;;;5074950;28;20444;-59
2024/03/24 08:40:35;;;;;;;12.27;1.45;;;15.50;67.40;;;;;;5088595;28;20145;-56
2024/03/24 08:43:01;;;;;;;8.95;1.08;;;15.50;67.90;;;;;;5085999;28;20122;-56
2024/03/24 08:45:28;;;;;;;7.13;1.15;;;15.60;67.30;;;;;;5085936;28;20151;-59
2024/03/24 08:47:55;;;;;;;7.78;1.38;;;15.60;67.60;;;;;;5087468;28;20069;-54
2024/03/24 08:50:21;;;;;;;11.65;1.83;;;15.60;67.60;;;;;;5086301;28;20069;-57
2024/03/24 08:52:47;;;;;;;11.05;1.33;;;15.60;67.50;;;;;;5087518;28;20491;-56
2024/03/24 08:55:14;;;;;;;6.18;1.33;;;15.60;68.10;;;;;;5084903;28;20128;-57
2024/03/24 08:57:41;;;;;;;5.15;1.13;;;15.60;68.80;;;;;;5089089;28;20079;-55
2024/03/24 09:00:12;;;;;;;8.07;1.23;;;15.50;69.50;;;;;;5088159;28;20379;-55
2024/03/24 09:02:38;;;;;;;3.88;0.63;;;15.60;70.10;;;;;;5091113;28;20075;-55
2024/03/24 09:05:05;;;;;;;6.03;0.65;;;15.50;70.10;;;;;;5088387;28;20076;-52
2024/03/24 09:07:31;;;;;;;8.18;1.40;;;15.50;70.20;;;;;;5088660;28;20064;-58
2024/03/24 09:09:58;;;;;;;4.43;0.80;;;15.50;70.20;;;;;;5093225;28;20107;-54
2024/03/24 09:12:24;;;;;;;4.85;1.17;;;15.40;70.50;;;;;;5087895;28;22308;-51
2024/03/24 09:14:51;;;;;;;4.15;0.80;;;15.40;70.20;;;;;;5089344;28;20096;-57
2024/03/24 09:17:17;;;;;;;3.88;0.80;;;15.40;70.10;;;;;;5089586;28;20072;-55
2024/03/24 09:19:45;;;;;;;1.67;0.98;;;15.40;70.10;;;;;;5088308;28;20072;-55
2024/03/24 09:22:11;;;;;;;2.92;0.85;;;15.40;70.20;;;;;;5087103;28;20068;-62
2024/03/24 09:24:38;;;;;;;2.08;0.75;;;15.30;70.30;;;;;;5090356;28;20064;-49
2024/03/24 09:27:06;;;;;;;1.08;0.60;;;15.40;70.20;;;;;;5087825;28;20068;-55
2024/03/24 09:29:32;;;;;;;4.90;1.23;;;15.30;70.30;;;;;;5088035;28;20068;-53
2024/03/24 09:32:00;;;;;;;3.50;1.00;;;15.20;70.10;;;;;;5088639;28;20095;-53
2024/03/24 09:34:27;;;;;;;5.55;1.05;;;15.30;69.90;;;;;;5088923;28;20079;-50
2024/03/24 09:36:53;;;;;;;3.75;1.13;;;15.30;69.70;;;;;;5089243;28;20156;-51
2024/03/24 09:39:19;;;;;;;2.40;1.10;;;15.20;69.80;;;;;;5090699;28;20084;-54
2024/03/24 09:41:47;;;;;;;3.50;0.80;;;15.30;70.10;;;;;;5088728;28;20079;-53
2024/03/24 09:44:15;;;;;;;12.73;1.50;;;15.20;70.40;;;;;;5089246;28;20073;-53
2024/03/24 09:46:44;;;;;;;7.72;1.15;;;15.20;70.60;;;;;;5088021;28;20081;-54
2024/03/24 09:49:18;;;;;;;8.02;1.52;;;15.10;71.00;;;;;;5089394;28;20155;-55
2024/03/24 09:51:46;;;;;;;3.97;1.08;;;15.10;71.10;;;;;;5091945;28;20514;-55
2024/03/24 09:54:13;;;;;;;35.97;17.70;;;15.10;71.40;;;;;;5088096;28;20448;-57
2024/03/24 09:56:41;;;;;;;6.10;1.08;;;15.00;71.20;;;;;;5091697;28;20093;-62
2024/03/24 09:59:08;;;;;;;4.07;0.98;;;14.90;71.30;;;;;;5084996;28;20582;-55
2024/03/24 10:01:39;;;;;;;2.05;0.80;;;15.00;70.80;;;;;;5088280;28;20068;-57
2024/03/24 10:04:06;;;;;;;4.60;1.02;;;14.90;71.00;;;;;;5090050;28;20140;-55
2024/03/24 10:06:33;;;;;;;2.58;0.80;;;15.00;71.10;;;;;;5086514;28;20100;-57
2024/03/24 10:09:00;;;;;;;4.85;1.05;;;15.00;70.70;;;;;;5090551;28;20572;-52
2024/03/24 10:11:28;;;;;;;7.93;1.00;;;15.00;70.60;;;;;;5088927;28;20510;-58
2024/03/24 10:14:00;;;;;;;11.75;1.10;;;14.90;69.00;;;;;;5085671;28;20065;-52
2024/03/24 10:16:26;;;;;;;89.20;5.40;;;15.00;67.20;;;;;;5089015;28;20439;-53
2024/03/24 10:18:53;;;;;;;38.30;2.45;;;15.20;66.30;;;;;;5087631;28;20510;-51
2024/03/24 10:21:21;;;;;;;9.30;1.67;;;15.20;66.50;;;;;;5090627;28;20076;-52
2024/03/24 10:23:48;;;;;;;6.07;1.63;;;15.10;67.00;;;;;;5086206;28;20475;-50
2024/03/24 10:26:22;;;;;;;15.00;1.80;;;15.00;67.30;;;;;;5090293;28;20564;-55
2024/03/24 10:28:50;;;;;;;7.60;1.40;;;15.00;67.50;;;;;;5077370;28;20072;-56
2024/03/24 10:31:17;;;;;;;13.77;1.38;;;14.90;67.90;;;;;;5087584;28;20064;-51
2024/03/24 10:33:44;;;;;;;13.82;1.23;;;15.00;68.20;;;;;;5082754;28;20065;-59
2024/03/24 10:36:11;;;;;;;10.60;1.60;;;14.90;68.50;;;;;;5092981;28;20106;-57
2024/03/24 10:38:38;;;;;;;12.55;1.75;;;14.90;69.00;;;;;;5086756;28;20576;-54
2024/03/24 10:41:07;;;;;;;5.53;1.10;;;14.80;69.30;;;;;;5085699;28;20340;-52
2024/03/24 10:43:34;;;;;;;13.50;1.50;;;14.70;69.60;;;;;;5087669;28;20068;-59
2024/03/24 10:46:01;;;;;;;8.95;1.52;;;14.70;69.60;;;;;;5089765;28;20204;-55
2024/03/24 10:48:32;;;;;;;8.85;1.55;;;14.80;69.30;;;;;;5088262;28;20144;-60
2024/03/24 10:51:01;;;;;;;5.70;1.50;;;14.80;68.90;;;;;;5092904;28;20072;-56
2024/03/24 10:53:31;;;;;;;7.63;1.40;;;14.70;68.80;;;;;;5088079;28;20068;-58
2024/03/24 10:55:59;;;;;;;3.35;1.10;;;14.70;68.60;;;;;;5089299;28;20100;-52
2024/03/24 10:58:25;;;;;;;3.55;1.60;;;14.80;68.10;;;;;;5087466;28;20518;-54
2024/03/24 11:00:53;;;;;;;4.65;1.40;;;14.70;67.70;;;;;;5087978;28;20065;-51
2024/03/24 11:03:21;;;;;;;3.55;1.17;;;14.70;68.30;;;;;;5088032;28;20152;-58
2024/03/24 11:05:50;;;;;;;7.47;1.20;;;14.70;68.10;;;;;;5088442;28;20155;-54
2024/03/24 11:08:19;;;;;;;5.90;1.20;;;14.60;68.00;;;;;;5077441;28;21634;-58
2024/03/24 11:11:00;;;;;;;4.53;0.95;;;14.70;68.70;;;;;;5088407;28;20460;-55
2024/03/24 11:13:34;;;;;;;7.15;0.93;;;14.60;69.10;;;;;;5083866;28;20060;-57
2024/03/24 11:16:02;;;;;;;4.00;1.02;;;14.60;69.50;;;;;;5088228;28;20143;-53
2024/03/24 11:18:32;;;;;;;14.02;1.40;;;14.50;69.90;;;;;;5081044;28;20069;-55
2024/03/24 11:21:00;;;;;;;8.38;1.80;;;14.60;70.00;;;;;;5088500;28;20072;-50
2024/03/24 11:23:41;;;;;;;10.07;1.55;;;14.60;69.80;;;;;;5085193;28;20092;-57
2024/03/24 11:26:14;;;;;;;10.30;1.40;;;14.70;70.10;;;;;;5087368;28;20094;-51
2024/03/24 11:28:53;;;;;;;14.90;1.63;;;14.60;71.00;;;;;;5086835;28;20072;-53
2024/03/24 11:31:23;;;;;;;8.85;1.73;;;14.50;71.80;;;;;;5088559;28;20188;-58
2024/03/24 11:34:13;;;;;;;6.00;1.50;;;14.50;71.90;;;;;;5084919;28;20513;-52
2024/03/24 11:36:41;;;;;;;5.65;1.45;;;14.50;71.70;;;;;;5086692;28;20174;-52
2024/03/24 11:39:12;;;;;;;5.70;1.45;;;14.40;69.50;;;;;;5083084;28;20102;-54
2024/03/24 11:42:04;;;;;;;7.30;1.20;;;14.50;68.80;;;;;;5087019;28;20072;-54
2024/03/24 11:44:32;;;;;;;3.67;1.15;;;14.50;67.90;;;;;;5086768;28;20077;-55
2024/03/24 11:47:06;;;;;;;6.40;1.55;;;14.50;67.70;;;;;;5082651;28;20192;-51
2024/03/24 11:49:38;;;;;;;3.78;0.82;;;14.50;67.80;;;;;;5087824;28;20076;-53
2024/03/24 11:52:05;;;;;;;5.32;1.17;;;14.40;68.20;;;;;;5085964;28;20469;-61
2024/03/24 11:54:35;;;;;;;2.35;1.10;;;14.30;68.60;;;;;;5085700;28;20068;-54
2024/03/24 11:57:03;;;;;;;3.40;1.08;;;14.30;68.90;;;;;;5078068;28;20171;-52
2024/03/24 11:59:30;;;;;;;5.47;1.20;;;14.20;69.10;;;;;;5083732;28;20525;-52
2024/03/24 12:01:57;;;;;;;;;;;14.20;69.40;;;;;;5089335;28;20068;-59
2024/03/24 12:04:26;;;;;;;15.18;1.55;;;14.10;69.70;;;;;;5085888;28;20022;-56
2024/03/24 12:06:52;;;;;;;6.43;1.45;;;14.10;70.00;;;;;;5087292;28;20080;-53
2024/03/24 12:09:19;;;;;;;2.75;1.30;;;14.10;70.20;;;;;;5087741;28;20084;-56
2024/03/24 12:11:45;;;;;;;8.23;1.30;;;14.10;70.50;;;;;;5086706;28;20064;-55
2024/03/24 12:14:12;;;;;;;;;;;14.10;70.70;;;;;;5087194;28;20096;-57
2024/03/24 12:16:38;;;;;;;6.35;1.33;;;14.10;70.90;;;;;;5086263;28;19980;-50
2024/03/24 12:19:05;;;;;;;5.60;0.90;;;14.10;71.10;;;;;;5082325;28;20084;-58
2024/03/24 12:21:32;;;;;;;9.85;1.05;;;14.10;71.20;;;;;;5089017;28;20106;-58
2024/03/24 12:23:58;;;;;;;5.90;1.15;;;14.10;71.30;;;;;;5082742;28;21102;-55
2024/03/24 12:26:25;;;;;;;5.40;1.13;;;14.00;71.60;;;;;;5085726;28;20178;-53
2024/03/24 12:28:55;;;;;;;11.27;1.35;;;14.00;71.80;;;;;;5087632;28;20100;-52
2024/03/24 12:31:22;;;;;;;19.90;1.73;;;14.00;72.10;;;;;;5089201;28;20400;-51
2024/03/24 12:33:52;;;;;;;19.98;2.47;;;14.00;72.10;;;;;;5089612;28;20523;-55
2024/03/24 12:36:18;;;;;;;16.67;2.22;;;14.00;71.80;;;;;;5088908;28;20454;-53
2024/03/24 12:38:45;;;;;;;19.05;2.28;;;14.00;71.60;;;;;;5091066;28;20075;-55